Flight Track Log - Related Links

Times and Time Zones

All times are in EDT time to prevent confusion due to time zone crossing. See the N789PR flight status page for this flight to view local times or setup timezone preferences in your user account.

Time Position Orientation Groundspeed Altitude Reporting Facility
EDT Latitude Longitude Course Direction KTS MPH feet Rate Location/Type
Wed 10:57:05 AM 27.2114 -80.2200 287° West 129 148 1,800  Level Miami Center
Wed 10:58:05 AM 27.2208 -80.2553 287° West 129 148 2,300 600 Climbing Miami Center
Wed 10:59:05 AM 27.2306 -80.2858 290° West 117 135 3,000 700 Climbing Miami Center
Wed 11:00:05 AM 27.2383 -80.3164 286° West 112 129 3,700 500 Climbing Miami Center
Wed 11:01:05 AM 27.2436 -80.3517 280° West 106 122 4,000 350 Climbing Miami Center
Wed 11:02:05 AM 27.2447 -80.3983 272° West 126 145 4,400 500 Climbing Miami Center
Wed 11:03:05 AM 27.2481 -80.4311 277° West 121 139 5,000 550 Climbing Miami Center
Wed 11:04:05 AM 27.2472 -80.4661 268° West 121 139 5,500 500 Climbing Miami Center
Wed 11:05:05 AM 27.2694 -80.4925 313° West 116 133 6,000 250 Climbing Miami Center
Wed 11:06:05 AM 27.3042 -80.5242 321° Northwest 138 159 6,000  Level Miami Center
Wed 11:08:05 AM 27.3714 -80.5869 320° Northwest 154 177 6,000  Level Miami Center
Wed 11:09:05 AM 27.4019 -80.6136 322° Northwest 154 177 6,000  Level Miami Center
Wed 11:10:05 AM 27.4367 -80.6453 321° Northwest 159 183 6,000  Level Miami Center
Wed 11:11:05 AM 27.4733 -80.6792 321° Northwest 159 183 6,000  Level Miami Center
Wed 11:12:05 AM 27.5081 -80.7108 321° Northwest 159 183 6,000  Level Miami Center
Wed 11:13:05 AM 27.5406 -80.7422 319° Northwest 159 183 6,000  Level Miami Center
Wed 11:14:05 AM 27.5711 -80.7692 322° Northwest 159 183 6,000 -250 Level Miami Center
Wed 11:15:05 AM 27.6100 -80.8033 322° Northwest 159 183 5,500 -500 Descending Miami Center
Wed 11:16:05 AM 27.6406 -80.8300 322° Northwest 159 183 5,000 -250 Descending Miami Center
Wed 11:17:05 AM 27.6731 -80.8642 317° Northwest 159 183 5,000  Level Miami Center
Wed 11:18:05 AM 27.7075 -80.8933 323° Northwest 159 183 5,000  Level Miami Center
Wed 11:19:05 AM 27.7422 -80.9228 323° Northwest 159 183 5,000  Level Miami Center
Wed 11:20:05 AM 27.7728 -80.9472 325° Northwest 154 177 5,000  Level Miami Center
Wed 11:21:05 AM 27.8033 -80.9767 320° Northwest 148 170 5,000  Level Miami Center
Wed 11:22:39 AM 27.8500 -81.0333 313° West 154 177 5,000  Level Orlando TRACON
Wed 11:23:39 AM 27.8833 -81.0667 319° Northwest 147 169 5,000  Level Orlando TRACON
Wed 11:24:33 AM 27.9167 -81.0833 336° Northwest 150 173 5,000  Level Orlando TRACON
Wed 11:26:33 AM 28.0000 -81.1333 336° Northwest 159 183 5,000 -33 Level Orlando TRACON
Wed 11:27:34 AM 28.0333 -81.1500 336° Northwest 156 180 4,900 -446 Descending Orlando TRACON
Wed 11:28:34 AM 28.0500 -81.2000 291° West 145 167 4,100 -476 Descending Orlando TRACON
Wed 11:29:40 AM 28.0667 -81.2333 300° West 137 158 3,900 -100 Descending Orlando TRACON
Wed 11:30:34 AM 28.0833 -81.2667 300° West 147 169 3,900  Level Orlando TRACON
Wed 11:31:34 AM 28.1000 -81.3167 291° West 144 166 3,900 -261 Level Orlando TRACON
Wed 11:32:29 AM 28.1333 -81.3500 319° Northwest 150 173 3,400 -522 Descending Orlando TRACON
Wed 11:33:29 AM 28.1500 -81.3833 300° West 153 176 2,900 -200 Descending Orlando TRACON
Wed 11:34:29 AM 28.1667 -81.4333 291° West 146 168 3,000 50 Climbing Orlando TRACON
Wed 11:35:29 AM 28.1833 -81.4667 300° West 138 159 3,000  Level Orlando TRACON
Wed 11:36:29 AM 28.2167 -81.5000 319° Northwest 147 169 3,000  Level Orlando TRACON
Wed 11:37:24 AM 28.2500 -81.5167 336° Northwest 140 161 3,000  Level Orlando TRACON
Wed 11:38:30 AM 28.2833 -81.5500 319° Northwest 144 166 3,000 -143 Level Orlando TRACON
Wed 11:39:30 AM 28.3167 -81.5500 360° North 150 173 2,700 -500 Descending Orlando TRACON
Wed 11:40:42 AM 28.3667 -81.5500 360° North 157 181 1,900 -333 Descending Orlando TRACON
Wed 11:41:36 AM 28.4167 -81.5500 360° North 150 173 2,000 52 Climbing Orlando TRACON
Wed 11:42:37 AM 28.4500 -81.5333 24° Northeast 153 176 2,000  Level Orlando TRACON
Wed 11:43:37 AM 28.4833 -81.5000 41° Northeast 150 173 2,000  Level Orlando TRACON
Wed 11:44:37 AM 28.5000 -81.4667 60° Northeast 143 165 2,000 -200 Level Orlando TRACON
Wed 11:45:37 AM 28.5167 -81.4167 69° East 143 165 1,600 -545 Descending Orlando TRACON
Wed 11:46:38 AM 28.5333 -81.3833 60° Northeast 127 146 900 -689 Descending Orlando TRACON

Login

Don't have an account? Register now (free) for customized features, flight alerts, and more!